Time;durP1;ratioP1;P1;durP2;ratioP2;P2;SDS_P1;SDS_P2;PMS_P1;PMS_P2;Temp;Humidity;BMP_temperature;BMP_pressure;BME280_temperature;BME280_humidity;BME280_pressure;Samples;Min_cycle;Max_cycle;Signal;HPM_P1;HPM_P2
2023/03/04 00:00:10;;;;;;;29.38;10.13;;;3.40;99.90;;;;;;5051532;28;20055;-40
2023/03/04 00:02:36;;;;;;;28.55;10.13;;;3.40;99.90;;;;;;5051157;28;20052;-39
2023/03/04 00:05:05;;;;;;;29.55;10.60;;;3.50;99.90;;;;;;5051115;28;20440;-40
2023/03/04 00:07:30;;;;;;;32.38;8.23;;;3.50;99.90;;;;;;5051388;28;20017;-40
2023/03/04 00:09:56;;;;;;;34.47;9.13;;;3.60;99.90;;;;;;5051626;28;20098;-40
2023/03/04 00:12:21;;;;;;;29.90;10.27;;;3.60;99.90;;;;;;5050822;28;20464;-39
2023/03/04 00:14:47;;;;;;;23.00;8.65;;;3.60;99.90;;;;;;5051001;28;20489;-39
2023/03/04 00:17:12;;;;;;;28.73;7.65;;;3.60;99.90;;;;;;5051211;28;20025;-40
2023/03/04 00:19:38;;;;;;;26.25;8.90;;;3.60;99.90;;;;;;5051254;28;20063;-40
2023/03/04 00:22:04;;;;;;;39.60;8.35;;;3.60;99.90;;;;;;5050394;28;20032;-40
2023/03/04 00:24:30;;;;;;;35.65;8.32;;;3.70;99.90;;;;;;5050863;28;20075;-40
2023/03/04 00:26:56;;;;;;;32.50;7.28;;;3.70;99.90;;;;;;5051115;28;20396;-40
2023/03/04 00:29:22;;;;;;;31.95;8.10;;;3.80;99.90;;;;;;5051019;28;20109;-40
2023/03/04 00:31:47;;;;;;;31.20;7.20;;;3.80;99.90;;;;;;5050415;28;20132;-40
2023/03/04 00:34:13;;;;;;;23.90;6.95;;;3.80;99.90;;;;;;5045672;28;20087;-40
2023/03/04 00:36:38;;;;;;;33.35;10.32;;;3.90;99.90;;;;;;5030815;28;20033;-40
2023/03/04 00:39:04;;;;;;;33.97;8.93;;;3.90;99.90;;;;;;5030893;28;20030;-40
2023/03/04 00:41:29;;;;;;;27.40;6.50;;;4.00;99.90;;;;;;5031018;28;20045;-40
2023/03/04 00:43:55;;;;;;;30.90;6.70;;;4.00;99.90;;;;;;5046918;28;20280;-41
2023/03/04 00:46:20;;;;;;;29.45;6.85;;;4.00;99.90;;;;;;5050760;28;20051;-41
2023/03/04 00:48:46;;;;;;;25.00;8.32;;;4.00;99.90;;;;;;5050323;28;20348;-41
2023/03/04 00:51:11;;;;;;;36.15;8.23;;;4.00;99.90;;;;;;5050328;28;20513;-40
2023/03/04 00:53:37;;;;;;;29.63;6.57;;;4.00;99.90;;;;;;5049802;28;20100;-41
2023/03/04 00:56:02;;;;;;;23.38;5.85;;;4.10;99.90;;;;;;5050420;28;20029;-40
2023/03/04 00:58:28;;;;;;;27.48;6.40;;;4.10;99.90;;;;;;5050626;28;20023;-41
2023/03/04 01:00:53;;;;;;;31.85;6.05;;;4.20;99.90;;;;;;5050383;28;20048;-40
2023/03/04 01:03:19;;;;;;;29.15;6.38;;;4.20;99.90;;;;;;5049732;28;20025;-40
2023/03/04 01:05:45;;;;;;;34.45;6.38;;;4.20;99.90;;;;;;5050462;28;20032;-40
2023/03/04 01:08:10;;;;;;;39.15;7.57;;;4.20;99.90;;;;;;5050472;28;20029;-42
2023/03/04 01:10:36;;;;;;;25.38;6.85;;;4.30;99.90;;;;;;5050214;28;20032;-47
2023/03/04 01:13:01;;;;;;;28.75;6.45;;;4.30;99.90;;;;;;5049960;28;20025;-40
2023/03/04 01:15:27;;;;;;;25.15;6.22;;;4.30;99.90;;;;;;5049855;28;20037;-45
2023/03/04 01:17:53;;;;;;;25.83;6.97;;;4.40;99.90;;;;;;5050477;28;20545;-45
2023/03/04 01:20:19;;;;;;;27.63;6.05;;;4.40;99.90;;;;;;5050672;28;20039;-47
2023/03/04 01:22:45;;;;;;;18.83;5.35;;;4.40;99.90;;;;;;5050825;28;20025;-49
2023/03/04 01:25:10;;;;;;;30.02;6.90;;;4.40;99.90;;;;;;5049706;28;20035;-46
2023/03/04 01:27:36;;;;;;;30.63;6.47;;;4.40;99.90;;;;;;5050116;28;20029;-45
2023/03/04 01:30:02;;;;;;;23.20;6.10;;;4.40;99.90;;;;;;5050722;28;20022;-45
2023/03/04 01:32:28;;;;;;;27.05;6.20;;;4.40;99.90;;;;;;5050423;28;20025;-45
2023/03/04 01:34:54;;;;;;;18.92;5.68;;;4.40;99.90;;;;;;5049809;28;20394;-45
2023/03/04 01:37:19;;;;;;;25.67;6.22;;;4.50;99.90;;;;;;5047963;28;20064;-46
2023/03/04 01:39:45;;;;;;;30.48;6.55;;;4.50;99.90;;;;;;5050211;28;20248;-46
2023/03/04 01:42:22;;;;;;;28.58;5.63;;;4.50;99.90;;;;;;5048801;28;20032;-46
2023/03/04 01:44:48;;;;;;;26.20;5.78;;;4.50;99.90;;;;;;5049806;28;20025;-46
2023/03/04 01:47:14;;;;;;;29.98;5.63;;;4.50;99.90;;;;;;5050216;28;20040;-48
2023/03/04 01:49:40;;;;;;;27.40;6.38;;;4.50;99.90;;;;;;5050027;28;20029;-46
2023/03/04 01:52:10;;;;;;;27.80;6.07;;;4.50;99.90;;;;;;5050283;28;20494;-49
2023/03/04 01:54:36;;;;;;;24.63;4.47;;;4.50;99.90;;;;;;5050136;28;20029;-45
2023/03/04 01:57:05;;;;;;;26.45;5.65;;;4.50;99.90;;;;;;5049916;28;20033;-47
2023/03/04 01:59:31;;;;;;;26.88;5.22;;;4.50;99.90;;;;;;5049775;28;20051;-46
2023/03/04 02:02:00;;;;;;;23.73;4.97;;;4.60;99.90;;;;;;5048866;28;20057;-47
2023/03/04 02:04:29;;;;;;;26.67;5.03;;;4.50;99.90;;;;;;5049768;28;20032;-46
2023/03/04 02:06:56;;;;;;;24.73;4.93;;;4.50;99.90;;;;;;5049644;28;20379;-45
2023/03/04 02:09:22;;;;;;;28.65;5.57;;;4.60;99.90;;;;;;5050201;28;20071;-47
2023/03/04 02:11:50;;;;;;;26.42;5.03;;;4.60;99.90;;;;;;5048398;28;20060;-44
2023/03/04 02:14:17;;;;;;;24.30;4.43;;;4.60;99.90;;;;;;5049431;28;20405;-47
2023/03/04 02:16:43;;;;;;;25.02;4.45;;;4.60;99.90;;;;;;5044558;28;20056;-44
2023/03/04 02:19:21;;;;;;;29.48;5.30;;;4.70;99.90;;;;;;5048796;28;20037;-47
2023/03/04 02:21:47;;;;;;;24.90;3.97;;;4.60;99.90;;;;;;5048129;28;20510;-46
2023/03/04 02:24:21;;;;;;;27.48;5.60;;;4.60;99.90;;;;;;5047953;28;20033;-46
2023/03/04 02:26:47;;;;;;;22.15;4.88;;;4.60;99.90;;;;;;5049512;28;20025;-46
2023/03/04 02:29:15;;;;;;;19.77;4.30;;;4.70;99.90;;;;;;5049760;28;20493;-45
2023/03/04 02:31:43;;;;;;;27.27;5.25;;;4.70;99.90;;;;;;5049156;28;20083;-49
2023/03/04 02:34:15;;;;;;;21.48;4.10;;;4.70;99.90;;;;;;5048833;28;20025;-46
2023/03/04 02:36:43;;;;;;;20.52;4.05;;;4.80;99.90;;;;;;5049194;28;20061;-45
2023/03/04 02:39:11;;;;;;;18.70;3.47;;;4.70;99.90;;;;;;5048223;28;20477;-44
2023/03/04 02:41:37;;;;;;;23.25;4.05;;;4.70;99.90;;;;;;5048943;28;20027;-44
2023/03/04 02:44:03;;;;;;;20.67;3.97;;;4.70;99.90;;;;;;5048782;28;20302;-44
2023/03/04 02:46:28;;;;;;;21.77;4.25;;;4.70;99.90;;;;;;5048938;28;20051;-44
2023/03/04 02:48:54;;;;;;;19.50;4.20;;;4.80;99.90;;;;;;5048224;28;20548;-44
2023/03/04 02:51:19;;;;;;;23.48;4.53;;;4.70;99.90;;;;;;5048299;28;20064;-45
2023/03/04 02:53:45;;;;;;;20.20;3.90;;;4.80;99.90;;;;;;5048347;28;20545;-45
2023/03/04 02:56:10;;;;;;;24.92;5.10;;;4.70;99.90;;;;;;5048605;28;20041;-45
2023/03/04 02:58:37;;;;;;;21.88;3.78;;;4.70;99.90;;;;;;5048654;28;20048;-45
2023/03/04 03:01:04;;;;;;;17.30;3.92;;;4.80;99.90;;;;;;5047078;28;20082;-45
2023/03/04 03:03:29;;;;;;;20.67;4.53;;;4.80;99.90;;;;;;5046771;28;20021;-44
2023/03/04 03:05:55;;;;;;;25.67;3.80;;;4.70;99.90;;;;;;5048871;28;20032;-44
2023/03/04 03:08:20;;;;;;;22.13;4.10;;;4.70;99.90;;;;;;5046848;28;20438;-45
2023/03/04 03:10:46;;;;;;;21.52;4.00;;;4.70;99.90;;;;;;5048192;28;20033;-45
2023/03/04 03:13:11;;;;;;;20.92;4.95;;;4.70;99.90;;;;;;5048195;28;20021;-48
2023/03/04 03:15:41;;;;;;;21.85;4.22;;;4.70;99.90;;;;;;5047909;28;20433;-45
2023/03/04 03:18:08;;;;;;;18.90;4.20;;;4.70;99.90;;;;;;5046985;28;20025;-44
2023/03/04 03:20:33;;;;;;;23.83;4.10;;;4.70;99.90;;;;;;5047718;28;20049;-47
2023/03/04 03:22:59;;;;;;;24.70;3.95;;;4.70;99.90;;;;;;5048109;28;20068;-44
2023/03/04 03:25:24;;;;;;;18.38;3.70;;;4.70;99.90;;;;;;5048085;28;20033;-45
2023/03/04 03:27:50;;;;;;;16.40;3.75;;;4.70;99.90;;;;;;5048372;28;20036;-44
2023/03/04 03:30:15;;;;;;;22.80;4.47;;;4.70;99.90;;;;;;5047897;28;20232;-45
2023/03/04 03:32:41;;;;;;;20.50;3.72;;;4.70;99.90;;;;;;5048231;28;20021;-44
2023/03/04 03:35:07;;;;;;;21.70;5.38;;;4.70;99.90;;;;;;5047026;28;20021;-44
2023/03/04 03:37:33;;;;;;;28.13;3.95;;;4.70;99.90;;;;;;5048610;28;20128;-44
2023/03/04 03:39:58;;;;;;;19.23;5.15;;;4.70;99.90;;;;;;5048270;28;20059;-48
2023/03/04 03:42:24;;;;;;;17.85;4.32;;;4.80;99.90;;;;;;5047931;28;20037;-46
2023/03/04 03:44:49;;;;;;;19.40;3.60;;;4.70;99.90;;;;;;5047987;28;20021;-45
2023/03/04 03:47:15;;;;;;;15.70;3.17;;;4.70;99.90;;;;;;5048369;28;20033;-48
2023/03/04 03:49:41;;;;;;;19.48;3.40;;;4.80;99.90;;;;;;5049153;28;20021;-45
2023/03/04 03:52:07;;;;;;;16.27;4.18;;;4.80;99.90;;;;;;5048648;28;20036;-45
2023/03/04 03:54:33;;;;;;;18.23;3.25;;;4.80;99.90;;;;;;5046915;28;20267;-48
2023/03/04 03:56:58;;;;;;;15.70;3.72;;;4.80;99.90;;;;;;5048753;28;20029;-47
2023/03/04 03:59:24;;;;;;;17.85;3.60;;;4.80;99.90;;;;;;5048398;28;20028;-44
2023/03/04 04:01:50;;;;;;;29.95;3.95;;;4.80;99.90;;;;;;5048345;28;20451;-45
2023/03/04 04:04:15;;;;;;;20.38;3.50;;;4.80;99.90;;;;;;5046480;28;20029;-45
2023/03/04 04:06:41;;;;;;;18.23;3.65;;;4.80;99.90;;;;;;5048744;28;20053;-45
2023/03/04 04:09:06;;;;;;;23.13;4.15;;;4.80;99.90;;;;;;5048134;28;20351;-45
2023/03/04 04:11:32;;;;;;;13.05;3.28;;;4.80;99.90;;;;;;5047334;28;20033;-45
2023/03/04 04:13:57;;;;;;;12.38;3.97;;;4.80;99.90;;;;;;5042459;28;20033;-45
2023/03/04 04:16:23;;;;;;;20.02;2.92;;;4.80;99.90;;;;;;5027969;28;20026;-44
2023/03/04 04:18:48;;;;;;;19.58;4.57;;;4.80;99.90;;;;;;5027802;28;20356;-45
2023/03/04 04:21:14;;;;;;;15.50;4.00;;;4.80;99.90;;;;;;5029794;28;20029;-45
2023/03/04 04:23:40;;;;;;;19.40;3.80;;;4.80;99.90;;;;;;5049089;28;20052;-45
2023/03/04 04:26:05;;;;;;;15.30;4.10;;;4.80;99.90;;;;;;5052160;28;20243;-44
2023/03/04 04:28:31;;;;;;;18.40;3.63;;;4.80;99.90;;;;;;5052100;28;20618;-45
2023/03/04 04:30:56;;;;;;;19.17;5.22;;;4.80;99.90;;;;;;5051985;28;20029;-45
2023/03/04 04:33:22;;;;;;;14.18;4.18;;;4.70;99.90;;;;;;5051087;28;20029;-45
2023/03/04 04:35:48;;;;;;;13.73;4.18;;;4.80;99.90;;;;;;5051791;28;20487;-44
2023/03/04 04:38:13;;;;;;;12.13;3.85;;;4.70;99.90;;;;;;5051938;28;20025;-44
2023/03/04 04:40:39;;;;;;;20.20;4.25;;;4.70;99.90;;;;;;5051065;28;20029;-44
2023/03/04 04:43:04;;;;;;;19.95;4.90;;;4.80;99.90;;;;;;5051167;28;20022;-44
2023/03/04 04:45:30;;;;;;;15.45;4.28;;;4.80;99.90;;;;;;5050785;28;20052;-45
2023/03/04 04:47:56;;;;;;;20.00;4.57;;;4.80;99.90;;;;;;5050956;28;20127;-46
2023/03/04 04:50:23;;;;;;;16.38;4.60;;;4.80;99.90;;;;;;5051818;28;20029;-44
2023/03/04 04:52:48;;;;;;;19.98;4.18;;;4.70;99.90;;;;;;5050821;28;20498;-45
2023/03/04 04:55:14;;;;;;;17.25;3.72;;;4.80;99.90;;;;;;5050042;28;20071;-47
2023/03/04 04:57:40;;;;;;;10.85;3.30;;;4.70;99.90;;;;;;5050832;28;20421;-46
2023/03/04 05:00:06;;;;;;;15.43;3.95;;;4.70;99.90;;;;;;5050625;28;20277;-45
2023/03/04 05:02:36;;;;;;;13.95;3.03;;;4.70;99.90;;;;;;5050272;28;20032;-45
2023/03/04 05:05:03;;;;;;;16.02;4.18;;;4.70;99.90;;;;;;5050446;28;20128;-46
2023/03/04 05:07:29;;;;;;;23.58;4.40;;;4.70;99.90;;;;;;5051145;28;20029;-45
2023/03/04 05:09:54;;;;;;;20.67;3.97;;;4.70;99.90;;;;;;5049427;28;20067;-45
2023/03/04 05:12:20;;;;;;;9.23;3.47;;;4.70;99.90;;;;;;5050851;28;20056;-46
2023/03/04 05:14:45;;;;;;;20.20;3.20;;;4.70;99.90;;;;;;5050260;28;20477;-45
2023/03/04 05:17:11;;;;;;;13.40;3.55;;;4.70;99.90;;;;;;5050396;28;20036;-45
2023/03/04 05:19:36;;;;;;;17.20;4.03;;;4.80;99.90;;;;;;5051134;28;20340;-45
2023/03/04 05:22:02;;;;;;;16.42;3.90;;;4.80;99.90;;;;;;5050985;28;20021;-44
2023/03/04 05:24:27;;;;;;;14.25;2.80;;;4.70;99.90;;;;;;5051012;28;20104;-45
2023/03/04 05:26:53;;;;;;;14.48;3.95;;;4.70;99.90;;;;;;5049676;28;20390;-46
2023/03/04 05:29:18;;;;;;;18.98;3.13;;;4.70;99.90;;;;;;5051040;28;20047;-45
2023/03/04 05:31:44;;;;;;;25.20;4.57;;;4.70;99.90;;;;;;5050915;28;20049;-45
2023/03/04 05:34:09;;;;;;;17.52;3.97;;;4.70;99.90;;;;;;5049525;28;20029;-44
2023/03/04 05:36:35;;;;;;;10.43;2.92;;;4.70;99.90;;;;;;5049231;28;20039;-44
2023/03/04 05:39:01;;;;;;;10.45;3.28;;;4.60;99.90;;;;;;5050420;28;20021;-44
2023/03/04 05:41:26;;;;;;;13.38;4.13;;;4.60;99.90;;;;;;5050336;28;20032;-44
2023/03/04 05:43:52;;;;;;;12.25;3.80;;;4.60;99.90;;;;;;5048269;28;20029;-44
2023/03/04 05:46:24;;;;;;;15.65;4.13;;;4.60;99.90;;;;;;5049368;28;20028;-45
2023/03/04 05:48:50;;;;;;;13.30;3.88;;;4.60;99.90;;;;;;5050851;28;20043;-46
2023/03/04 05:51:15;;;;;;;21.52;4.13;;;4.60;99.90;;;;;;5049557;28;20021;-44
2023/03/04 05:53:41;;;;;;;16.67;4.22;;;4.60;99.90;;;;;;5050314;28;20505;-44
2023/03/04 05:56:12;;;;;;;11.55;4.00;;;4.60;99.90;;;;;;5045956;28;20120;-44
2023/03/04 05:58:38;;;;;;;21.30;4.85;;;4.60;99.90;;;;;;5050651;28;20118;-44
2023/03/04 06:01:05;;;;;;;12.50;4.30;;;4.60;99.90;;;;;;5050641;28;20441;-48
2023/03/04 06:03:31;;;;;;;14.80;5.47;;;4.60;99.90;;;;;;5050119;28;20024;-44
2023/03/04 06:05:57;;;;;;;14.90;4.35;;;4.60;99.90;;;;;;5049175;28;20044;-48
2023/03/04 06:08:23;;;;;;;19.20;4.55;;;4.50;99.90;;;;;;5049631;28;20060;-44
2023/03/04 06:10:52;;;;;;;13.50;4.40;;;4.50;99.90;;;;;;5048371;28;20052;-43
2023/03/04 06:13:18;;;;;;;18.95;4.88;;;4.50;99.90;;;;;;5049363;28;20458;-38
2023/03/04 06:15:44;;;;;;;16.00;4.18;;;4.50;99.90;;;;;;5048631;28;20035;-39
2023/03/04 06:18:09;;;;;;;11.82;4.47;;;4.50;99.90;;;;;;5049328;28;20037;-39
2023/03/04 06:20:36;;;;;;;14.88;4.30;;;4.60;99.90;;;;;;5049600;28;20021;-39
2023/03/04 06:23:02;;;;;;;21.52;4.63;;;4.50;99.90;;;;;;5049661;28;20029;-39
2023/03/04 06:25:28;;;;;;;14.73;4.07;;;4.50;99.90;;;;;;5048128;28;20071;-39
2023/03/04 06:27:53;;;;;;;24.33;5.55;;;4.50;99.90;;;;;;5049355;28;20033;-39
2023/03/04 06:30:19;;;;;;;18.98;5.10;;;4.50;99.90;;;;;;5049206;28;20028;-44
2023/03/04 06:32:46;;;;;;;16.95;4.82;;;4.50;99.90;;;;;;5049349;28;20025;-39
2023/03/04 06:35:13;;;;;;;14.45;4.63;;;4.50;99.90;;;;;;5049284;28;20366;-39
2023/03/04 06:37:39;;;;;;;14.52;4.35;;;4.50;99.90;;;;;;5048536;28;20040;-39
2023/03/04 06:40:06;;;;;;;11.55;4.18;;;4.60;99.90;;;;;;5048197;28;20063;-39
2023/03/04 06:42:32;;;;;;;13.02;4.68;;;4.50;99.90;;;;;;5048288;28;20025;-39
2023/03/04 06:44:57;;;;;;;23.73;4.68;;;4.60;99.90;;;;;;5048311;28;20021;-39
2023/03/04 06:47:23;;;;;;;16.15;3.78;;;4.60;99.90;;;;;;5051552;28;20083;-38
2023/03/04 06:49:48;;;;;;;17.95;4.18;;;4.60;99.90;;;;;;5050642;28;20056;-39
2023/03/04 06:52:14;;;;;;;19.25;3.88;;;4.60;99.90;;;;;;5050678;28;20029;-40
2023/03/04 06:54:39;;;;;;;11.82;3.65;;;4.60;99.90;;;;;;5051779;28;20067;-39
2023/03/04 06:57:05;;;;;;;14.05;4.05;;;4.60;99.90;;;;;;5051973;28;20279;-39
2023/03/04 06:59:31;;;;;;;30.70;4.70;;;4.60;99.90;;;;;;5052061;28;20016;-39
2023/03/04 07:01:57;;;;;;;14.63;4.00;;;4.60;99.90;;;;;;5056379;28;20024;-39
2023/03/04 07:04:23;;;;;;;22.60;5.30;;;4.60;99.90;;;;;;5055556;28;20048;-39
2023/03/04 07:06:49;;;;;;;10.48;3.83;;;4.60;99.90;;;;;;5063975;28;20031;-39
2023/03/04 07:09:15;;;;;;;15.45;3.55;;;4.70;99.90;;;;;;5049527;28;20036;-39
2023/03/04 07:11:40;;;;;;;10.98;4.05;;;4.80;99.90;;;;;;5053644;28;20481;-39
2023/03/04 07:14:06;;;;;;;9.25;3.33;;;4.80;99.90;;;;;;5055811;28;20033;-39
2023/03/04 07:16:32;;;;;;;11.68;4.10;;;4.80;99.90;;;;;;5050077;28;20033;-39
2023/03/04 07:18:57;;;;;;;13.40;3.85;;;4.80;99.90;;;;;;5050392;28;20025;-39
2023/03/04 07:21:23;;;;;;;11.43;4.05;;;4.90;99.90;;;;;;5050870;28;20103;-39
2023/03/04 07:23:49;;;;;;;19.50;5.18;;;4.80;99.90;;;;;;5055442;28;20029;-39
2023/03/04 07:26:16;;;;;;;9.98;3.30;;;4.90;99.90;;;;;;5050989;28;20075;-39
2023/03/04 07:28:42;;;;;;;17.08;3.60;;;4.90;99.90;;;;;;5050819;28;20029;-39
2023/03/04 07:31:29;;;;;;;10.43;4.15;;;5.00;99.90;;;;;;5051655;28;20505;-39
2023/03/04 07:34:02;;;;;;;17.20;3.88;;;4.90;99.90;;;;;;5058706;28;20478;-39
2023/03/04 07:36:28;;;;;;;14.70;4.00;;;4.90;99.90;;;;;;5062394;28;20028;-39
2023/03/04 07:38:54;;;;;;;21.98;4.90;;;4.90;99.90;;;;;;5051271;28;20029;-39
2023/03/04 07:41:21;;;;;;;11.05;3.63;;;4.90;99.90;;;;;;5054435;28;20042;-38
2023/03/04 07:43:47;;;;;;;16.80;3.80;;;5.00;99.90;;;;;;5055135;28;20024;-39
2023/03/04 07:46:12;;;;;;;8.02;3.10;;;5.00;99.90;;;;;;5053976;28;20448;-39
2023/03/04 07:48:38;;;;;;;17.95;5.50;;;5.00;99.90;;;;;;5046522;28;20238;-39
2023/03/04 07:51:09;;;;;;;16.75;3.65;;;5.00;99.90;;;;;;5047563;28;20033;-39
2023/03/04 07:53:36;;;;;;;9.88;3.50;;;5.00;99.90;;;;;;5047661;28;20064;-38
2023/03/04 07:56:03;;;;;;;13.98;3.53;;;5.00;99.90;;;;;;5048112;28;20138;-39
2023/03/04 07:58:29;;;;;;;14.10;3.60;;;5.00;99.90;;;;;;5050479;28;20108;-38
2023/03/04 08:00:54;;;;;;;14.50;3.35;;;5.00;99.90;;;;;;5049109;28;20116;-38
2023/03/04 08:03:20;;;;;;;7.90;2.97;;;5.10;99.90;;;;;;5052981;28;20059;-39
2023/03/04 08:05:45;;;;;;;11.10;3.60;;;5.10;99.90;;;;;;5046490;28;20128;-38
2023/03/04 08:08:11;;;;;;;7.65;3.20;;;5.20;99.90;;;;;;5048109;28;20458;-38
2023/03/04 08:10:38;;;;;;;9.45;2.92;;;5.20;99.90;;;;;;5051311;28;20370;-38
2023/03/04 08:13:05;;;;;;;9.32;3.42;;;5.20;99.90;;;;;;5050501;28;20375;-39
2023/03/04 08:15:31;;;;;;;10.73;3.60;;;5.20;99.90;;;;;;5061489;28;20414;-38
2023/03/04 08:17:57;;;;;;;8.68;3.47;;;5.20;99.90;;;;;;5049429;28;20056;-38
2023/03/04 08:20:23;;;;;;;7.88;3.10;;;5.20;99.90;;;;;;5044880;28;20048;-38
2023/03/04 08:22:50;;;;;;;13.77;3.20;;;5.20;99.90;;;;;;5048755;28;20029;-38
2023/03/04 08:25:15;;;;;;;7.68;2.60;;;5.30;99.90;;;;;;5050865;28;20667;-38
2023/03/04 08:27:41;;;;;;;9.40;4.22;;;5.30;99.90;;;;;;5051684;28;20025;-38
2023/03/04 08:30:08;;;;;;;10.93;3.30;;;5.40;99.90;;;;;;5054188;28;20028;-38
2023/03/04 08:32:33;;;;;;;8.07;3.47;;;5.40;99.90;;;;;;5050599;28;20091;-38
2023/03/04 08:35:01;;;;;;;11.43;3.75;;;5.40;99.90;;;;;;5050734;28;20114;-38
2023/03/04 08:37:28;;;;;;;8.15;3.92;;;5.40;99.90;;;;;;5050257;28;20029;-39
2023/03/04 08:39:53;;;;;;;10.82;3.67;;;5.40;99.90;;;;;;5048650;28;20029;-38
2023/03/04 08:42:19;;;;;;;9.20;3.00;;;5.50;99.90;;;;;;5049284;28;20206;-38
2023/03/04 08:44:45;;;;;;;8.18;4.45;;;5.60;99.90;;;;;;5057420;28;20036;-38
2023/03/04 08:47:11;;;;;;;9.80;3.53;;;5.60;99.90;;;;;;5049689;28;20033;-38
2023/03/04 08:49:36;;;;;;;7.82;2.95;;;5.60;99.90;;;;;;5052158;28;20060;-38
2023/03/04 08:52:02;;;;;;;11.18;3.13;;;5.60;99.90;;;;;;5070079;28;20064;-38
2023/03/04 08:54:28;;;;;;;5.43;2.70;;;5.50;99.90;;;;;;5050792;28;20418;-38
2023/03/04 08:56:54;;;;;;;7.00;2.92;;;5.40;99.90;;;;;;5051427;28;20058;-38
2023/03/04 08:59:19;;;;;;;8.05;2.70;;;5.40;99.90;;;;;;5051212;28;20437;-38
2023/03/04 09:01:45;;;;;;;5.93;2.83;;;5.30;99.90;;;;;;5050791;28;20025;-38
2023/03/04 09:04:10;;;;;;;5.85;3.20;;;5.30;99.90;;;;;;5049979;28;20087;-38
2023/03/04 09:06:36;;;;;;;8.70;3.00;;;5.30;99.90;;;;;;5050765;28;20033;-38
2023/03/04 09:09:02;;;;;;;10.60;3.40;;;5.40;99.90;;;;;;5050672;28;20074;-38
2023/03/04 09:11:28;;;;;;;13.57;3.00;;;5.40;99.90;;;;;;5048853;28;20036;-38
2023/03/04 09:13:53;;;;;;;13.48;3.60;;;5.50;99.90;;;;;;5048542;28;20112;-38
2023/03/04 09:16:19;;;;;;;9.05;2.60;;;5.50;99.90;;;;;;5049044;28;20099;-38
2023/03/04 09:18:45;;;;;;;16.27;3.72;;;5.50;99.90;;;;;;5048836;28;20079;-38
2023/03/04 09:21:10;;;;;;;22.38;3.88;;;5.50;99.90;;;;;;5049559;28;20394;-38
2023/03/04 09:23:36;;;;;;;12.25;3.03;;;5.60;99.90;;;;;;5048857;28;20098;-38
2023/03/04 09:26:18;;;;;;;22.52;3.95;;;5.70;99.90;;;;;;5048910;28;20036;-38
2023/03/04 09:28:43;;;;;;;22.98;4.72;;;5.80;99.90;;;;;;5049956;28;20021;-38
2023/03/04 09:31:13;;;;;;;20.67;3.95;;;5.90;99.90;;;;;;5049625;28;20033;-39
2023/03/04 09:33:40;;;;;;;12.30;3.83;;;6.00;99.90;;;;;;5049059;28;20043;-38
2023/03/04 09:36:07;;;;;;;24.23;3.42;;;6.00;99.90;;;;;;5049285;28;20037;-39
2023/03/04 09:38:32;;;;;;;17.52;3.20;;;6.00;99.90;;;;;;5049010;28;20033;-38
2023/03/04 09:41:03;;;;;;;22.23;5.43;;;6.00;99.90;;;;;;5049748;28;20424;-38
2023/03/04 09:43:30;;;;;;;22.95;4.18;;;6.00;99.90;;;;;;5044070;28;20445;-38
2023/03/04 09:46:00;;;;;;;23.33;4.32;;;6.00;99.90;;;;;;5040979;28;20458;-38
2023/03/04 09:48:43;;;;;;;12.23;3.20;;;5.90;99.90;;;;;;5049071;28;20047;-38
2023/03/04 09:51:42;;;;;;;25.45;4.53;;;5.80;99.90;;;;;;5049183;28;20032;-38
2023/03/04 09:54:17;;;;;;;23.73;4.15;;;5.80;99.90;;;;;;5048707;28;20035;-38
2023/03/04 09:56:43;;;;;;;25.15;5.00;;;5.70;99.90;;;;;;5048574;28;20111;-38
2023/03/04 09:59:22;;;;;;;43.33;6.80;;;5.70;99.90;;;;;;5049399;28;20123;-38
2023/03/04 10:01:55;;;;;;;18.25;3.92;;;5.60;99.90;;;;;;5047590;28;20021;-38
2023/03/04 10:04:40;;;;;;;36.97;5.03;;;5.70;99.90;;;;;;5048350;28;20060;-38
2023/03/04 10:07:16;;;;;;;21.67;4.18;;;5.80;99.90;;;;;;5047934;28;20120;-38
2023/03/04 10:09:54;;;;;;;21.20;4.43;;;5.80;99.90;;;;;;5048935;28;20029;-38
2023/03/04 10:12:24;;;;;;;20.60;3.72;;;5.90;99.90;;;;;;5050313;28;20025;-38
2023/03/04 10:15:29;;;;;;;12.65;3.40;;;6.00;99.90;;;;;;5048865;28;20094;-38
2023/03/04 10:18:35;;;;;;;18.25;3.63;;;6.00;99.90;;;;;;5049030;28;20041;-38
2023/03/04 10:21:19;;;;;;;18.63;3.47;;;6.10;99.90;;;;;;5025510;28;20051;-39
2023/03/04 10:23:46;;;;;;;13.15;2.92;;;6.10;99.90;;;;;;5040434;28;20033;-38
2023/03/04 10:26:19;;;;;;;14.05;3.22;;;6.20;99.90;;;;;;5048711;28;20558;-39
2023/03/04 10:28:45;;;;;;;17.92;2.65;;;6.10;99.90;;;;;;5043505;28;20025;-38
2023/03/04 10:31:19;;;;;;;18.20;3.25;;;6.10;99.90;;;;;;5049440;28;20091;-38
2023/03/04 10:33:44;;;;;;;28.98;4.35;;;6.10;99.90;;;;;;5047447;28;20103;-39
2023/03/04 10:36:28;;;;;;;17.75;3.78;;;6.10;99.90;;;;;;5048303;28;20104;-39
2023/03/04 10:39:01;;;;;;;24.50;2.95;;;6.10;99.90;;;;;;5046489;28;20064;-39
2023/03/04 10:41:29;;;;;;;15.43;3.60;;;6.00;99.90;;;;;;5049436;28;20024;-39
2023/03/04 10:44:03;;;;;;;14.52;3.65;;;6.00;99.90;;;;;;5046361;28;20526;-39
2023/03/04 10:46:30;;;;;;;27.33;3.42;;;6.00;99.90;;;;;;5047566;28;20049;-39
2023/03/04 10:48:57;;;;;;;22.65;4.25;;;6.10;99.90;;;;;;5047855;28;20162;-39
2023/03/04 10:51:28;;;;;;;20.10;2.78;;;6.20;99.90;;;;;;5047631;28;20032;-39
2023/03/04 10:54:06;;;;;;;16.77;3.67;;;6.20;99.90;;;;;;5025751;28;20330;-39
2023/03/04 10:56:35;;;;;;;9.40;2.60;;;6.20;99.90;;;;;;5028227;28;20124;-39
2023/03/04 10:59:27;;;;;;;17.30;3.35;;;6.20;99.90;;;;;;5039732;28;20021;-39
2023/03/04 11:01:53;;;;;;;13.80;2.58;;;6.40;99.90;;;;;;5045872;28;20021;-39
2023/03/04 11:04:21;;;;;;;13.23;2.45;;;6.70;99.90;;;;;;5046461;28;20041;-39
2023/03/04 11:06:47;;;;;;;9.38;2.60;;;6.80;99.90;;;;;;5047750;28;20049;-39
2023/03/04 11:09:25;;;;;;;11.43;3.15;;;7.00;99.90;;;;;;5047280;28;20036;-39
2023/03/04 11:11:53;;;;;;;13.65;3.42;;;7.50;99.90;;;;;;5046600;28;20514;-39
2023/03/04 11:14:21;;;;;;;7.85;2.17;;;8.50;99.90;;;;;;5045902;28;20037;-40
2023/03/04 11:17:01;;;;;;;13.15;2.97;;;9.40;99.90;;;;;;5047815;28;20104;-40
2023/03/04 11:19:34;;;;;;;10.80;2.63;;;10.00;99.90;;;;;;5047260;28;20021;-40
2023/03/04 11:22:00;;;;;;;6.13;2.70;;;11.30;99.90;;;;;;5047863;28;20323;-40
2023/03/04 11:24:29;;;;;;;12.23;2.53;;;11.90;99.90;;;;;;5047268;28;20017;-40
2023/03/04 11:27:01;;;;;;;9.55;2.97;;;11.50;99.90;;;;;;5047569;28;20051;-40
2023/03/04 11:29:59;;;;;;;8.85;2.00;;;11.10;99.90;;;;;;5046103;28;20112;-40
2023/03/04 11:32:31;;;;;;;11.75;3.00;;;10.90;99.90;;;;;;5046395;28;20457;-40
2023/03/04 11:35:25;;;;;;;9.48;2.60;;;10.50;99.90;;;;;;5047446;28;20083;-40
2023/03/04 11:38:15;;;;;;;14.45;2.88;;;10.20;99.90;;;;;;5046477;28;20043;-39
2023/03/04 11:40:44;;;;;;;11.68;3.38;;;9.70;99.90;;;;;;5047475;28;20028;-39
2023/03/04 11:43:29;;;;;;;6.47;2.33;;;9.20;99.90;;;;;;5047274;28;20025;-40
2023/03/04 11:46:15;;;;;;;12.90;3.15;;;8.70;99.90;;;;;;5047556;28;20128;-39
2023/03/04 11:48:48;;;;;;;10.18;2.72;;;8.70;99.90;;;;;;5047581;28;20394;-39
2023/03/04 11:51:25;;;;;;;14.40;2.53;;;8.40;99.90;;;;;;5047030;28;20090;-39
2023/03/04 11:54:31;;;;;;;17.13;3.50;;;8.30;99.90;;;;;;5045550;28;20056;-39
2023/03/04 11:57:01;;;;;;;19.27;3.50;;;8.20;99.90;;;;;;5047423;28;20033;-38
2023/03/04 11:59:44;;;;;;;;;;;8.20;99.90;;;;;;5047906;28;20079;-38
2023/03/04 12:02:09;;;;;;;7.15;2.58;;;8.40;99.90;;;;;;5044904;28;20096;-38
2023/03/04 12:05:13;;;;;;;19.95;3.50;;;8.50;99.90;;;;;;5045648;28;20108;-40
2023/03/04 12:07:54;;;;;;;12.82;2.75;;;8.20;99.90;;;;;;5047091;28;20025;-39
2023/03/04 12:10:27;;;;;;;13.20;3.45;;;8.10;99.90;;;;;;5047431;28;20029;-39
2023/03/04 12:12:55;;;;;;;14.32;3.28;;;8.10;99.90;;;;;;5046636;28;20043;-40
2023/03/04 12:15:54;;;;;;;9.57;2.22;;;8.00;99.90;;;;;;5046840;28;20312;-39
2023/03/04 12:18:50;;;;;;;12.38;2.60;;;8.00;99.90;;;;;;5047055;28;20499;-39
2023/03/04 12:21:50;;;;;;;11.25;2.63;;;8.00;99.90;;;;;;5046782;28;20025;-39
2023/03/04 12:24:24;;;;;;;10.00;2.58;;;8.00;99.90;;;;;;5047466;28;20058;-40
2023/03/04 12:26:58;;;;;;;16.55;2.72;;;7.80;99.90;;;;;;5048256;28;20025;-39
2023/03/04 12:30:06;;;;;;;8.68;2.42;;;7.90;99.90;;;;;;5047619;28;20052;-40
2023/03/04 12:32:41;;;;;;;16.33;3.47;;;7.90;99.90;;;;;;5041264;28;20541;-39
2023/03/04 12:35:42;;;;;;;18.55;3.38;;;7.90;99.90;;;;;;5047471;28;20033;-38
2023/03/04 12:38:38;;;;;;;14.65;3.35;;;7.70;99.90;;;;;;5047384;28;20048;-38
2023/03/04 12:41:27;;;;;;;11.65;2.22;;;7.70;99.90;;;;;;5046570;28;20044;-39
2023/03/04 12:44:15;;;;;;;12.40;2.28;;;7.70;99.90;;;;;;5046378;28;20036;-39
2023/03/04 12:46:53;;;;;;;15.32;3.35;;;7.80;99.90;;;;;;5051421;28;20033;-39
2023/03/04 12:49:43;;;;;;;10.05;1.90;;;8.10;99.90;;;;;;5050085;28;20419;-40
2023/03/04 12:52:31;;;;;;;9.90;2.33;;;8.50;99.90;;;;;;5051454;28;20166;-39
2023/03/04 12:55:02;;;;;;;12.73;2.53;;;9.50;99.90;;;;;;5044163;28;20120;-40
2023/03/04 12:57:32;;;;;;;16.33;2.80;;;10.10;99.90;;;;;;5051482;28;20075;-40